Weather at Venosa Airfield [CLOSED]

Public forecast

Using degrees Celsius for public forecast. Weather courtesy of forecast.io.

Closest aviation weather report (METAR) to Venosa Airfield

Closest report is Foggia "Gino Lisa" Airport, 30.3 nm (56.1 km) NNW.

2024/05/21 13:51 (retrieved 31 minutes ago)

LIBF 211351Z 25016G28KT 9999 SCT035 27/13 Q1009

Closest aviation forecast (TAF) to Venosa Airfield

Closest forecast is Foggia "Gino Lisa" Airport, 30.3 nm (56.1 km) NNW.

2024/05/21 12:00 (retrieved 2 hours ago)

TAF LIBF 211100Z 2112/2212 25020G30KT 9999 SCT030 BECMG 2118/2120 22014KT BECMG 2208/2210 25020G30KT